Terminal Aerodrome Forecast
Issued by NWS

Current Version | Previous Version | Graphics & Text | Print | Product List | Glossary Off
Versions: 1 2 3 4 5 6 7 8 9 10 11 12 13 14 15

232
FTUS41 KILN 081743
TAFLCK
TAF
KLCK 081743Z 0818/0918 27007KT 3SM -RASN SCT015 OVC022
      TEMPO 0818/0822 1SM -SN OVC008
     FM090400 27010KT 3SM -SN BR BKN008 OVC012
     FM091200 28011G19KT 3SM -SN OVC015=

USA.gov is the U.S. government's official web portal to all federal, state and local government web resources and services.